Flight Track Log - Related Links

Times and Time Zones

All times are in EDT time to prevent confusion due to time zone crossing. See the N1926A flight status page for this flight to view local times or setup timezone preferences in your user account.

Time Position Orientation Groundspeed Altitude Reporting Facility
EDT Latitude Longitude Course Direction KTS km/h feet Rate Location/Type
Sun 16:30:47 30.4206 -85.7375 358° North 162 299 7.000  Level Jacksonville Center
Sun 16:31:59 30.4731 -85.7269 10° North 192 356 8.900 947 Climbing Jacksonville Center
Sun 16:33:00 30.5400 -85.7144 North 247 457 9.100 49 Climbing Jacksonville Center
Sun 16:34:00 30.7676 -85.8019 358° North  Level FlightAware Approximate
Sun 16:34:01 30.6131 -85.7142 360° North 257 476 9.000  Level Jacksonville Center
Sun 16:35:00 30.8274 -85.8041 358° North  Level FlightAware Approximate
Sun 16:35:01 30.6819 -85.7211 355° North 259 480 9.100  Level Jacksonville Center
Sun 16:36:00 30.8872 -85.8063 358° North  Level FlightAware Approximate
Sun 16:36:02 30.7567 -85.7331 352° North 261 483 9.100  Level Jacksonville Center
Sun 16:37:03 30.8256 -85.7422 353° North 257 476 9.100  Level Jacksonville Center
Sun 16:38:03 30.9006 -85.7494 355° North 257 476 9.100  Level Jacksonville Center
Sun 16:39:04 30.9692 -85.7564 355° North 258 478 9.100  Level Jacksonville Center
Sun 16:40:05 31.0444 -85.7536 North 260 481 9.100  Level Jacksonville Center
Sun 16:41:05 31.1217 -85.7561 358° North 261 483 9.100  Level Jacksonville Center
Sun 16:42:06 31.1792 -85.7919 332° Northwest 244 452 9.100  Level Jacksonville Center
Sun 16:43:07 31.2431 -85.8350 330° Northwest 244 452 9.100  Level Jacksonville Center
Sun 16:44:07 31.2986 -85.8733 329° Northwest 245 454 9.100  Level Jacksonville Center
Sun 16:45:08 31.3606 -85.8922 345° North 257 476 9.100  Level Jacksonville Center
Sun 16:46:08 31.4356 -85.8997 355° North 260 481 9.100  Level Jacksonville Center
Sun 16:47:09 31.5108 -85.9044 357° North 259 480 9.100  Level Jacksonville Center
Sun 16:48:10 31.5817 -85.9019 North 264 489 9.100  Level Jacksonville Center
Sun 16:49:10 31.6572 -85.8922 North 264 489 9.100  Level Jacksonville Center
Sun 16:50:11 31.7283 -85.8822 North 264 489 9.100  Level Jacksonville Center
Sun 16:51:11 31.8058 -85.8700 North 264 489 9.100  Level Jacksonville Center
Sun 16:52:12 31.8750 -85.8553 10° North 264 489 9.100  Level Jacksonville Center
Sun 16:54:00 31.9819 -85.8333 North  Level FlightAware Approximate
Sun 17:01:00 32.3968 -85.8500 North  Level FlightAware Approximate
Sun 17:02:00 32.4557 -85.8556 348° North  Level FlightAware Approximate
Sun 17:03:00 32.5000 -85.8667 North  Level FlightAware Approximate

Login

Don't have an account? Register now (free) for customized features, flight alerts, and more!